Time;durP1;ratioP1;P1;durP2;ratioP2;P2;SDS_P1;SDS_P2;PMS_P1;PMS_P2;Temp;Humidity;BMP_temperature;BMP_pressure;BME280_temperature;BME280_humidity;BME280_pressure;Samples;Min_cycle;Max_cycle;Signal;HPM_P1;HPM_P2
2023/06/11 00:00:02;;;;;;;7.15;6.45;;;;;;;;;;5032935;28;20021;-63
2023/06/11 00:02:33;;;;;;;7.32;6.60;;;;;;;;;;5031582;28;20071;-64
2023/06/11 00:04:59;;;;;;;7.32;6.47;;;;;;;;;;5031545;28;20040;-64
2023/06/11 00:07:25;;;;;;;7.97;6.90;;;;;;;;;;5031013;28;20025;-64
2023/06/11 00:09:52;;;;;;;7.28;6.47;;;;;;;;;;5030253;28;20508;-64
2023/06/11 00:12:17;;;;;;;7.35;6.65;;;;;;;;;;5031389;28;20485;-64
2023/06/11 00:14:43;;;;;;;7.78;6.65;;;;;;;;;;5034552;28;20026;-63
2023/06/11 00:17:10;;;;;;;7.20;6.50;;;;;;;;;;5034699;28;20039;-64
2023/06/11 00:19:36;;;;;;;6.85;6.25;;;;;;;;;;5035626;28;20404;-64
2023/06/11 00:22:02;;;;;;;7.93;6.43;;;;;;;;;;5035390;28;20033;-65
2023/06/11 00:24:28;;;;;;;7.43;6.50;;;;;;;;;;5035240;28;20548;-63
2023/06/11 00:26:55;;;;;;;7.35;6.20;;;;;;;;;;5035198;28;20033;-63
2023/06/11 00:29:20;;;;;;;7.97;6.57;;;;;;;;;;5035138;28;20024;-64
2023/06/11 00:31:46;;;;;;;8.13;6.70;;;;;;;;;;5033978;28;20038;-64
2023/06/11 00:34:11;;;;;;;7.07;6.38;;;;;;;;;;5035088;28;20129;-64
2023/06/11 00:36:40;;;;;;;7.13;6.43;;;;;;;;;;5035377;28;20032;-63
2023/06/11 00:39:06;;;;;;;9.65;6.38;;;;;;;;;;5034930;28;20021;-63
2023/06/11 00:41:31;;;;;;;7.40;6.43;;;;;;;;;;5034958;28;20279;-64
2023/06/11 00:43:57;;;;;;;7.30;6.38;;;;;;;;;;5034882;28;20056;-64
2023/06/11 00:46:24;;;;;;;7.22;6.50;;;;;;;;;;5035215;28;20034;-63
2023/06/11 00:48:50;;;;;;;6.95;6.25;;;;;;;;;;5034857;28;20025;-64
2023/06/11 00:51:26;;;;;;;7.90;6.70;;;;;;;;;;5033467;28;20026;-64
2023/06/11 00:53:52;;;;;;;7.88;6.38;;;;;;;;;;5034779;28;20417;-63
2023/06/11 00:56:19;;;;;;;7.45;6.65;;;;;;;;;;5034766;28;20052;-64
2023/06/11 00:58:46;;;;;;;7.35;6.57;;;;;;;;;;5034565;28;20547;-64
2023/06/11 01:01:15;;;;;;;7.32;6.55;;;;;;;;;;5034947;28;20112;-63
2023/06/11 01:03:43;;;;;;;7.13;6.45;;;;;;;;;;5034830;28;20021;-63
2023/06/11 01:06:17;;;;;;;7.55;6.45;;;;;;;;;;5034539;28;20061;-64
2023/06/11 01:08:44;;;;;;;6.53;5.88;;;;;;;;;;5034467;28;20465;-64
2023/06/11 01:11:21;;;;;;;7.65;6.45;;;;;;;;;;5034217;28;20046;-64
2023/06/11 01:13:47;;;;;;;7.93;6.50;;;;;;;;;;5034657;28;20029;-63
2023/06/11 01:16:20;;;;;;;6.93;6.22;;;;;;;;;;5034292;28;20117;-64
2023/06/11 01:18:58;;;;;;;7.10;6.05;;;;;;;;;;5034266;28;20413;-64
2023/06/11 01:21:33;;;;;;;7.35;6.65;;;;;;;;;;5034304;28;20465;-64
2023/06/11 01:24:17;;;;;;;8.88;6.38;;;;;;;;;;5034179;28;20462;-64
2023/06/11 01:27:09;;;;;;;7.53;6.05;;;;;;;;;;5033761;28;20443;-63
2023/06/11 01:29:45;;;;;;;7.25;6.55;;;;;;;;;;5034133;28;20108;-63
2023/06/11 01:32:11;;;;;;;6.90;6.20;;;;;;;;;;5034012;28;20041;-63
2023/06/11 01:34:41;;;;;;;6.78;6.18;;;;;;;;;;5034246;28;20057;-63
2023/06/11 01:37:09;;;;;;;;;;;;;;;;;;5034587;28;20541;-63
2023/06/11 01:39:34;;;;;;;7.07;6.00;;;;;;;;;;5033916;28;20005;-63
2023/06/11 01:42:00;;;;;;;7.63;6.50;;;;;;;;;;5034071;28;20452;-63
2023/06/11 01:44:26;;;;;;;7.32;6.63;;;;;;;;;;5033885;28;20511;-63
2023/06/11 01:46:52;;;;;;;7.18;6.47;;;;;;;;;;5033988;28;20057;-63
2023/06/11 01:49:17;;;;;;;7.88;6.28;;;;;;;;;;5033962;28;20465;-63
2023/06/11 01:51:43;;;;;;;6.70;6.00;;;;;;;;;;5033833;28;20485;-63
2023/06/11 01:54:08;;;;;;;6.90;6.13;;;;;;;;;;5033651;28;20557;-63
2023/06/11 01:56:34;;;;;;;6.97;6.10;;;;;;;;;;5033815;28;20022;-63
2023/06/11 01:59:00;;;;;;;6.63;6.03;;;;;;;;;;5033580;28;20079;-65
2023/06/11 02:01:28;;;;;;;7.55;6.57;;;;;;;;;;5033723;28;20113;-64
2023/06/11 02:03:54;;;;;;;7.35;6.60;;;;;;;;;;5033483;28;20289;-63
2023/06/11 02:06:20;;;;;;;6.93;6.20;;;;;;;;;;5033364;28;20269;-64
2023/06/11 02:08:45;;;;;;;6.60;5.90;;;;;;;;;;5033404;28;20068;-63
2023/06/11 02:11:11;;;;;;;7.50;6.53;;;;;;;;;;5033087;28;20038;-65
2023/06/11 02:13:36;;;;;;;6.95;6.25;;;;;;;;;;5033293;28;20030;-64
2023/06/11 02:16:02;;;;;;;6.70;6.10;;;;;;;;;;5033213;28;20381;-63
2023/06/11 02:18:27;;;;;;;7.45;6.57;;;;;;;;;;5033465;28;20033;-63
2023/06/11 02:20:53;;;;;;;6.82;6.10;;;;;;;;;;5033344;28;20032;-64
2023/06/11 02:23:18;;;;;;;7.25;6.55;;;;;;;;;;5033092;28;20115;-63
2023/06/11 02:25:44;;;;;;;8.73;6.07;;;;;;;;;;5033296;28;20030;-63
2023/06/11 02:28:10;;;;;;;6.65;6.05;;;;;;;;;;5033043;28;20025;-63
2023/06/11 02:30:36;;;;;;;6.75;6.15;;;;;;;;;;5032911;28;20025;-63
2023/06/11 02:33:01;;;;;;;6.45;5.88;;;;;;;;;;5033115;28;20026;-64
2023/06/11 02:35:27;;;;;;;6.40;5.80;;;;;;;;;;5032796;28;20088;-63
2023/06/11 02:37:52;;;;;;;6.60;6.00;;;;;;;;;;5031906;28;20021;-64
2023/06/11 02:40:18;;;;;;;6.90;6.15;;;;;;;;;;5032999;28;20021;-64
2023/06/11 02:42:44;;;;;;;6.70;5.78;;;;;;;;;;5032812;28;20505;-63
2023/06/11 02:45:10;;;;;;;6.70;6.00;;;;;;;;;;5032657;28;20079;-63
2023/06/11 02:47:35;;;;;;;6.82;6.05;;;;;;;;;;5032667;28;20022;-63
2023/06/11 02:50:01;;;;;;;7.25;6.32;;;;;;;;;;5032645;28;20075;-64
2023/06/11 02:52:26;;;;;;;6.95;6.25;;;;;;;;;;5032564;28;20033;-63
2023/06/11 02:54:52;;;;;;;6.93;6.20;;;;;;;;;;5032845;28;20040;-63
2023/06/11 02:57:17;;;;;;;6.78;6.18;;;;;;;;;;5032561;28;20029;-63
2023/06/11 02:59:43;;;;;;;6.95;6.25;;;;;;;;;;5033037;28;20029;-63
2023/06/11 03:02:08;;;;;;;6.63;5.93;;;;;;;;;;5032458;28;20033;-64
2023/06/11 03:04:34;;;;;;;9.38;6.05;;;;;;;;;;5032512;28;20022;-63
2023/06/11 03:06:59;;;;;;;6.78;6.07;;;;;;;;;;5032386;28;20103;-63
2023/06/11 03:09:25;;;;;;;9.45;6.15;;;;;;;;;;5032465;28;20037;-63
2023/06/11 03:11:51;;;;;;;6.97;6.13;;;;;;;;;;5032354;28;20125;-64
2023/06/11 03:14:17;;;;;;;7.10;6.22;;;;;;;;;;5032567;28;20026;-63
2023/06/11 03:16:42;;;;;;;6.90;6.20;;;;;;;;;;5032410;28;20420;-63
2023/06/11 03:19:07;;;;;;;6.75;5.88;;;;;;;;;;5032586;28;20100;-63
2023/06/11 03:21:33;;;;;;;6.78;6.07;;;;;;;;;;5032327;28;20469;-63
2023/06/11 03:23:59;;;;;;;7.10;6.30;;;;;;;;;;5032586;28;20033;-63
2023/06/11 03:26:25;;;;;;;7.75;5.90;;;;;;;;;;5032229;28;20436;-63
2023/06/11 03:28:51;;;;;;;7.07;6.38;;;;;;;;;;5032481;28;20033;-64
2023/06/11 03:31:16;;;;;;;6.40;5.78;;;;;;;;;;5032453;28;20022;-64
2023/06/11 03:33:42;;;;;;;6.20;5.60;;;;;;;;;;5032145;28;20033;-64
2023/06/11 03:36:07;;;;;;;6.80;5.60;;;;;;;;;;5032482;28;20025;-64
2023/06/11 03:38:33;;;;;;;6.63;6.00;;;;;;;;;;5032054;28;20104;-64
2023/06/11 03:40:58;;;;;;;7.13;6.18;;;;;;;;;;5032103;28;20021;-64
2023/06/11 03:43:24;;;;;;;6.90;6.20;;;;;;;;;;5032090;28;20163;-64
2023/06/11 03:45:49;;;;;;;6.40;5.72;;;;;;;;;;5032104;28;20037;-65
2023/06/11 03:48:15;;;;;;;7.07;6.30;;;;;;;;;;5032677;28;20084;-65
2023/06/11 03:50:40;;;;;;;6.47;5.88;;;;;;;;;;5035954;28;20091;-65
2023/06/11 03:53:06;;;;;;;7.10;6.40;;;;;;;;;;5036080;28;20032;-65
2023/06/11 03:55:31;;;;;;;6.20;5.60;;;;;;;;;;5035846;28;20034;-65
2023/06/11 03:57:57;;;;;;;6.72;6.03;;;;;;;;;;5036078;28;20022;-65
2023/06/11 04:00:22;;;;;;;7.55;5.93;;;;;;;;;;5036038;28;20029;-64
2023/06/11 04:02:48;;;;;;;6.22;5.70;;;;;;;;;;5035756;28;20030;-64
2023/06/11 04:05:13;;;;;;;6.53;5.50;;;;;;;;;;5035966;28;20068;-64
2023/06/11 04:07:40;;;;;;;6.88;6.18;;;;;;;;;;5035897;28;20022;-64
2023/06/11 04:10:08;;;;;;;6.65;6.05;;;;;;;;;;5035432;28;20052;-64
2023/06/11 04:12:34;;;;;;;6.57;5.97;;;;;;;;;;5035348;28;20033;-64
2023/06/11 04:14:59;;;;;;;6.25;5.65;;;;;;;;;;5035465;28;20026;-64
2023/06/11 04:17:25;;;;;;;6.18;5.57;;;;;;;;;;5035385;28;20018;-64
2023/06/11 04:19:51;;;;;;;6.20;5.60;;;;;;;;;;5035423;28;20481;-64
2023/06/11 04:22:16;;;;;;;6.85;6.15;;;;;;;;;;5035657;28;20109;-64
2023/06/11 04:24:42;;;;;;;6.82;6.13;;;;;;;;;;5035372;28;20026;-64
2023/06/11 04:27:07;;;;;;;6.85;6.15;;;;;;;;;;5035256;28;20097;-64
2023/06/11 04:29:33;;;;;;;7.50;6.07;;;;;;;;;;5035521;28;20428;-64
2023/06/11 04:32:02;;;;;;;6.43;5.82;;;;;;;;;;5035290;28;20425;-64
2023/06/11 04:34:33;;;;;;;6.40;5.80;;;;;;;;;;5035211;28;20090;-64
2023/06/11 04:36:59;;;;;;;7.25;6.15;;;;;;;;;;5035147;28;20049;-64
2023/06/11 04:39:26;;;;;;;6.93;5.47;;;;;;;;;;5035303;28;20346;-64
2023/06/11 04:41:51;;;;;;;7.38;5.70;;;;;;;;;;5034994;28;20496;-64
2023/06/11 04:44:20;;;;;;;6.60;5.90;;;;;;;;;;5035198;28;20026;-64
2023/06/11 04:46:47;;;;;;;8.65;5.78;;;;;;;;;;5035187;28;20029;-64
2023/06/11 04:49:14;;;;;;;6.13;5.35;;;;;;;;;;5034916;28;20057;-65
2023/06/11 04:51:40;;;;;;;6.28;5.68;;;;;;;;;;5035302;28;20017;-64
2023/06/11 04:54:07;;;;;;;6.47;5.85;;;;;;;;;;5034854;28;20428;-64
2023/06/11 04:56:33;;;;;;;6.20;5.60;;;;;;;;;;5034742;28;20481;-64
2023/06/11 04:59:01;;;;;;;8.10;5.97;;;;;;;;;;5034959;28;20037;-64
2023/06/11 05:01:32;;;;;;;6.28;5.50;;;;;;;;;;5033799;28;20029;-64
2023/06/11 05:03:58;;;;;;;7.57;5.97;;;;;;;;;;5034677;28;20029;-64
2023/06/11 05:06:25;;;;;;;6.25;5.55;;;;;;;;;;5034463;28;20024;-64
2023/06/11 05:08:52;;;;;;;6.18;5.63;;;;;;;;;;5034523;28;20033;-64
2023/06/11 05:11:17;;;;;;;6.60;5.93;;;;;;;;;;5034210;28;20481;-65
2023/06/11 05:13:43;;;;;;;6.18;5.38;;;;;;;;;;5034529;28;20105;-65
2023/06/11 05:16:09;;;;;;;7.13;5.78;;;;;;;;;;5034301;28;20116;-65
2023/06/11 05:18:35;;;;;;;6.85;6.18;;;;;;;;;;5034284;28;20060;-64
2023/06/11 05:21:00;;;;;;;6.82;6.13;;;;;;;;;;5034272;28;20076;-65
2023/06/11 05:23:31;;;;;;;5.97;5.47;;;;;;;;;;5034510;28;20489;-64
2023/06/11 05:26:12;;;;;;;6.05;5.45;;;;;;;;;;5034219;28;20032;-64
2023/06/11 05:28:40;;;;;;;6.00;5.40;;;;;;;;;;5034387;28;20350;-65
2023/06/11 05:31:09;;;;;;;6.20;5.60;;;;;;;;;;5034077;28;20036;-65
2023/06/11 05:33:34;;;;;;;6.25;5.65;;;;;;;;;;5033913;28;20496;-65
2023/06/11 05:36:00;;;;;;;6.40;5.80;;;;;;;;;;5033957;28;20034;-64
2023/06/11 05:38:26;;;;;;;6.60;5.60;;;;;;;;;;5033855;28;20029;-64
2023/06/11 05:40:51;;;;;;;6.22;5.63;;;;;;;;;;5033962;28;20037;-64
2023/06/11 05:43:17;;;;;;;6.05;5.50;;;;;;;;;;5034042;28;20072;-64
2023/06/11 05:45:49;;;;;;;6.85;6.15;;;;;;;;;;5033803;28;20419;-64
2023/06/11 05:48:15;;;;;;;6.30;5.70;;;;;;;;;;5034258;28;20117;-65
2023/06/11 05:50:42;;;;;;;8.15;5.47;;;;;;;;;;5033715;28;20025;-65
2023/06/11 05:53:09;;;;;;;5.75;5.25;;;;;;;;;;5033541;28;20026;-65
2023/06/11 05:55:35;;;;;;;5.88;5.38;;;;;;;;;;5033871;28;20100;-64
2023/06/11 05:58:01;;;;;;;6.20;5.53;;;;;;;;;;5033802;28;20427;-64
2023/06/11 06:00:27;;;;;;;6.63;5.63;;;;;;;;;;5033784;28;20044;-64
2023/06/11 06:02:52;;;;;;;5.90;5.40;;;;;;;;;;5033724;28;20052;-65
2023/06/11 06:05:18;;;;;;;6.20;5.65;;;;;;;;;;5033741;28;20457;-64
2023/06/11 06:07:43;;;;;;;6.20;5.60;;;;;;;;;;5033376;28;20496;-64
2023/06/11 06:10:09;;;;;;;6.30;5.70;;;;;;;;;;5033169;28;20045;-64
2023/06/11 06:12:35;;;;;;;6.32;5.40;;;;;;;;;;5032918;28;20416;-64
2023/06/11 06:15:01;;;;;;;6.10;5.50;;;;;;;;;;5033217;28;20320;-64
2023/06/11 06:17:26;;;;;;;6.45;5.72;;;;;;;;;;5033157;28;20446;-64
2023/06/11 06:19:52;;;;;;;6.82;5.85;;;;;;;;;;5033128;28;20021;-65
2023/06/11 06:22:18;;;;;;;5.90;5.38;;;;;;;;;;5033373;28;20030;-63
2023/06/11 06:24:44;;;;;;;5.72;5.18;;;;;;;;;;5033405;28;20084;-64
2023/06/11 06:27:10;;;;;;;6.13;5.53;;;;;;;;;;5032953;28;20017;-64
2023/06/11 06:29:38;;;;;;;5.90;5.40;;;;;;;;;;5033308;28;20025;-62
2023/06/11 06:32:05;;;;;;;6.03;5.43;;;;;;;;;;5033038;28;20036;-63
2023/06/11 06:34:30;;;;;;;6.68;5.55;;;;;;;;;;5033135;28;20029;-63
2023/06/11 06:36:56;;;;;;;5.63;5.13;;;;;;;;;;5032824;28;20461;-63
2023/06/11 06:39:22;;;;;;;6.03;5.43;;;;;;;;;;5033060;28;20029;-63
2023/06/11 06:41:47;;;;;;;6.32;5.72;;;;;;;;;;5032713;28;20017;-63
2023/06/11 06:44:13;;;;;;;5.82;5.22;;;;;;;;;;5032751;28;20039;-62
2023/06/11 06:46:38;;;;;;;5.47;4.97;;;;;;;;;;5032586;28;20104;-63
2023/06/11 06:49:04;;;;;;;6.40;5.80;;;;;;;;;;5032706;28;20105;-65
2023/06/11 06:51:30;;;;;;;5.63;5.10;;;;;;;;;;5032413;28;20037;-63
2023/06/11 06:53:56;;;;;;;6.28;5.45;;;;;;;;;;5032897;28;20275;-63
2023/06/11 06:56:24;;;;;;;5.97;5.40;;;;;;;;;;5032824;28;20104;-63
2023/06/11 06:58:50;;;;;;;5.60;5.10;;;;;;;;;;5032518;28;20039;-65
2023/06/11 07:01:16;;;;;;;5.85;5.25;;;;;;;;;;5032460;28;20033;-63
2023/06/11 07:03:42;;;;;;;5.90;5.30;;;;;;;;;;5032448;28;20029;-64
2023/06/11 07:06:08;;;;;;;5.70;5.20;;;;;;;;;;5032378;28;20025;-63
2023/06/11 07:08:34;;;;;;;6.80;5.35;;;;;;;;;;5032418;28;20033;-63
2023/06/11 07:11:00;;;;;;;5.80;5.28;;;;;;;;;;5032107;28;20045;-63
2023/06/11 07:13:25;;;;;;;5.07;4.68;;;;;;;;;;5032397;28;20366;-63
2023/06/11 07:15:51;;;;;;;5.65;5.15;;;;;;;;;;5032341;28;20032;-63
2023/06/11 07:18:17;;;;;;;5.95;5.45;;;;;;;;;;5032309;28;20030;-64
2023/06/11 07:20:44;;;;;;;6.22;5.03;;;;;;;;;;5032305;28;20025;-63
2023/06/11 07:23:09;;;;;;;7.15;5.78;;;;;;;;;;5032650;28;20033;-65
2023/06/11 07:25:37;;;;;;;5.68;5.18;;;;;;;;;;5036626;28;20385;-63
2023/06/11 07:28:05;;;;;;;6.65;5.47;;;;;;;;;;5051717;28;20079;-63
2023/06/11 07:30:32;;;;;;;6.38;5.70;;;;;;;;;;5036218;28;20029;-63
2023/06/11 07:32:59;;;;;;;5.60;5.10;;;;;;;;;;5036181;28;20030;-63
2023/06/11 07:35:26;;;;;;;6.00;5.40;;;;;;;;;;5036173;28;20075;-63
2023/06/11 07:37:52;;;;;;;6.05;5.45;;;;;;;;;;5036507;28;20030;-63
2023/06/11 07:40:18;;;;;;;5.22;4.72;;;;;;;;;;5036120;28;20029;-65
2023/06/11 07:42:44;;;;;;;5.85;5.25;;;;;;;;;;5036110;28;20025;-63
2023/06/11 07:45:11;;;;;;;5.28;4.75;;;;;;;;;;5036023;28;20096;-64
2023/06/11 07:47:36;;;;;;;5.90;5.30;;;;;;;;;;5036011;28;20025;-63
2023/06/11 07:50:06;;;;;;;5.60;5.10;;;;;;;;;;5035943;28;20040;-64
2023/06/11 07:52:32;;;;;;;5.55;5.05;;;;;;;;;;5035952;28;20044;-63
2023/06/11 07:54:57;;;;;;;6.00;5.10;;;;;;;;;;5036159;28;20025;-63
2023/06/11 07:57:23;;;;;;;6.00;5.50;;;;;;;;;;5036101;28;20025;-63
2023/06/11 07:59:49;;;;;;;5.50;5.00;;;;;;;;;;5045285;28;20088;-63
2023/06/11 08:02:15;;;;;;;5.22;4.72;;;;;;;;;;5046781;28;20112;-65
2023/06/11 08:04:41;;;;;;;5.55;5.05;;;;;;;;;;5045461;28;20037;-66
2023/06/11 08:07:07;;;;;;;6.07;5.47;;;;;;;;;;5044828;28;20022;-63
2023/06/11 08:09:36;;;;;;;5.47;4.97;;;;;;;;;;5046236;28;20175;-63
2023/06/11 08:12:03;;;;;;;6.15;5.55;;;;;;;;;;5046003;28;20032;-65
2023/06/11 08:14:30;;;;;;;6.05;5.45;;;;;;;;;;5045433;28;20072;-63
2023/06/11 08:16:55;;;;;;;5.13;4.70;;;;;;;;;;5042623;28;20059;-65
2023/06/11 08:19:22;;;;;;;5.90;5.30;;;;;;;;;;5045606;28;20029;-63
2023/06/11 08:21:47;;;;;;;6.53;5.43;;;;;;;;;;5045557;28;20507;-63
2023/06/11 08:24:13;;;;;;;5.38;4.88;;;;;;;;;;5044462;28;20054;-63
2023/06/11 08:26:39;;;;;;;5.68;5.18;;;;;;;;;;5044187;28;20021;-63
2023/06/11 08:29:05;;;;;;;5.55;4.97;;;;;;;;;;5045905;28;20024;-65
2023/06/11 08:31:31;;;;;;;5.63;5.13;;;;;;;;;;5043922;28;20080;-66
2023/06/11 08:33:57;;;;;;;5.75;5.03;;;;;;;;;;5044536;28;20376;-63
2023/06/11 08:36:22;;;;;;;6.50;5.90;;;;;;;;;;5045740;28;20033;-65
2023/06/11 08:38:48;;;;;;;6.05;5.53;;;;;;;;;;5046234;28;20014;-63
2023/06/11 08:41:17;;;;;;;6.07;5.50;;;;;;;;;;5044657;28;20025;-64
2023/06/11 08:43:43;;;;;;;6.00;5.50;;;;;;;;;;5045286;28;20032;-63
2023/06/11 08:46:14;;;;;;;5.35;4.85;;;;;;;;;;5043471;28;20026;-63
2023/06/11 08:48:44;;;;;;;5.38;4.88;;;;;;;;;;5043601;28;20024;-64
2023/06/11 08:51:11;;;;;;;6.03;5.50;;;;;;;;;;5045199;28;20017;-62
2023/06/11 08:53:37;;;;;;;5.55;5.05;;;;;;;;;;5044411;28;20071;-63
2023/06/11 08:56:05;;;;;;;5.53;5.03;;;;;;;;;;5045708;28;20029;-66
2023/06/11 08:58:32;;;;;;;6.18;5.57;;;;;;;;;;5053719;28;20056;-64
2023/06/11 09:00:58;;;;;;;6.13;5.50;;;;;;;;;;5054630;28;20033;-63
2023/06/11 09:03:23;;;;;;;5.35;4.85;;;;;;;;;;5054809;28;20032;-63
2023/06/11 09:05:49;;;;;;;5.32;4.88;;;;;;;;;;5054567;28;20366;-62
2023/06/11 09:08:15;;;;;;;5.90;5.40;;;;;;;;;;5054715;28;20029;-63
2023/06/11 09:10:48;;;;;;;5.30;4.80;;;;;;;;;;5054332;28;20069;-63
2023/06/11 09:13:15;;;;;;;5.50;5.00;;;;;;;;;;5054259;28;20052;-63
2023/06/11 09:15:48;;;;;;;6.35;5.75;;;;;;;;;;5054612;28;20025;-63
2023/06/11 09:18:19;;;;;;;5.75;5.25;;;;;;;;;;5054282;28;20029;-63
2023/06/11 09:20:51;;;;;;;5.60;5.10;;;;;;;;;;5054440;28;20036;-63
2023/06/11 09:23:31;;;;;;;6.10;5.50;;;;;;;;;;5054215;28;20111;-65
2023/06/11 09:26:01;;;;;;;6.72;5.05;;;;;;;;;;5054222;28;20033;-64
2023/06/11 09:28:30;;;;;;;6.20;5.00;;;;;;;;;;5054483;28;20028;-64
2023/06/11 09:30:57;;;;;;;5.50;5.00;;;;;;;;;;5054384;28;20120;-65
2023/06/11 09:33:23;;;;;;;5.47;4.90;;;;;;;;;;5054215;28;20041;-64
2023/06/11 09:35:49;;;;;;;5.22;4.70;;;;;;;;;;5053973;28;20627;-64
2023/06/11 09:38:16;;;;;;;5.22;4.82;;;;;;;;;;5053973;28;20048;-66
2023/06/11 09:40:46;;;;;;;5.55;5.05;;;;;;;;;;5053886;28;20025;-66
2023/06/11 09:43:12;;;;;;;5.70;5.20;;;;;;;;;;5053821;28;20354;-65
2023/06/11 09:45:38;;;;;;;5.32;4.82;;;;;;;;;;5053988;28;20029;-64
2023/06/11 09:48:05;;;;;;;5.55;5.05;;;;;;;;;;5053380;28;20044;-65
2023/06/11 09:50:33;;;;;;;5.88;5.03;;;;;;;;;;5053726;28;20028;-65
2023/06/11 09:53:02;;;;;;;6.00;5.50;;;;;;;;;;5053479;28;20044;-65
2023/06/11 09:55:31;;;;;;;6.07;5.47;;;;;;;;;;5054105;28;20408;-64
2023/06/11 09:57:57;;;;;;;5.45;4.85;;;;;;;;;;5053502;28;20477;-64
2023/06/11 10:00:23;;;;;;;5.20;4.70;;;;;;;;;;5053730;28;20080;-64
2023/06/11 10:02:49;;;;;;;5.57;5.07;;;;;;;;;;5053422;28;20425;-65
2023/06/11 10:05:15;;;;;;;5.38;4.88;;;;;;;;;;5053411;28;20044;-64
2023/06/11 10:08:05;;;;;;;5.20;4.70;;;;;;;;;;5053381;28;20029;-66
2023/06/11 10:10:35;;;;;;;5.55;5.05;;;;;;;;;;5053159;28;20064;-65
2023/06/11 10:13:01;;;;;;;5.70;5.10;;;;;;;;;;5053164;28;20048;-63
2023/06/11 10:15:30;;;;;;;5.60;5.10;;;;;;;;;;5045844;28;20026;-66
2023/06/11 10:17:56;;;;;;;5.80;5.25;;;;;;;;;;5033249;28;20033;-64
2023/06/11 10:20:35;;;;;;;5.50;5.00;;;;;;;;;;5041695;28;20027;-64
2023/06/11 10:23:05;;;;;;;5.88;4.85;;;;;;;;;;5043550;28;20115;-63
2023/06/11 10:25:40;;;;;;;;;;;;;;;;;;5042562;28;20648;-64
2023/06/11 10:28:07;;;;;;;5.30;4.80;;;;;;;;;;5041255;28;19920;-64
2023/06/11 10:30:33;;;;;;;5.10;4.60;;;;;;;;;;5041256;28;20037;-64
2023/06/11 10:32:59;;;;;;;5.32;4.82;;;;;;;;;;5040269;28;20392;-64
2023/06/11 10:35:31;;;;;;;6.43;5.13;;;;;;;;;;5041530;28;20511;-64
2023/06/11 10:38:12;;;;;;;5.35;4.85;;;;;;;;;;5041935;28;20024;-63
2023/06/11 10:40:39;;;;;;;6.93;5.20;;;;;;;;;;5040493;28;20025;-64
2023/06/11 10:43:21;;;;;;;6.18;5.57;;;;;;;;;;5038975;28;20119;-67
2023/06/11 10:45:59;;;;;;;6.15;5.55;;;;;;;;;;5039702;28;20533;-64
2023/06/11 10:48:29;;;;;;;6.50;5.90;;;;;;;;;;5040419;28;20029;-64
2023/06/11 10:51:01;;;;;;;6.43;5.80;;;;;;;;;;5045642;28;20504;-64
2023/06/11 10:53:37;;;;;;;5.85;5.25;;;;;;;;;;5040719;28;20043;-65
2023/06/11 10:56:03;;;;;;;6.65;5.57;;;;;;;;;;5039790;28;20392;-66
2023/06/11 10:58:29;;;;;;;6.05;5.55;;;;;;;;;;5038903;28;20071;-63
2023/06/11 11:00:55;;;;;;;6.80;6.20;;;;;;;;;;5039487;28;20497;-64
2023/06/11 11:03:22;;;;;;;6.25;5.60;;;;;;;;;;5036838;28;20072;-66
2023/06/11 11:05:52;;;;;;;5.75;5.25;;;;;;;;;;5037643;28;20099;-64
2023/06/11 11:08:18;;;;;;;6.30;5.70;;;;;;;;;;5041077;28;20711;-66
2023/06/11 11:10:44;;;;;;;6.90;6.20;;;;;;;;;;5047134;28;20053;-64
2023/06/11 11:13:10;;;;;;;7.35;6.65;;;;;;;;;;5048113;28;20089;-65
2023/06/11 11:15:36;;;;;;;6.88;5.22;;;;;;;;;;5050006;28;20064;-64
2023/06/11 11:18:02;;;;;;;5.75;5.20;;;;;;;;;;5050616;28;20021;-64
2023/06/11 11:20:32;;;;;;;9.63;5.47;;;;;;;;;;5049393;28;20118;-64
2023/06/11 11:22:57;;;;;;;6.25;5.05;;;;;;;;;;5052241;28;20035;-64
2023/06/11 11:25:31;;;;;;;5.93;5.03;;;;;;;;;;5051688;28;20024;-63
2023/06/11 11:27:58;;;;;;;5.93;5.35;;;;;;;;;;5043539;28;20108;-64
2023/06/11 11:30:24;;;;;;;6.72;5.32;;;;;;;;;;5040980;28;20095;-67
2023/06/11 11:32:52;;;;;;;7.38;5.20;;;;;;;;;;5045920;28;20035;-63
2023/06/11 11:35:18;;;;;;;7.70;5.07;;;;;;;;;;5045920;28;20091;-65
2023/06/11 11:37:51;;;;;;;7.05;5.45;;;;;;;;;;5042553;28;20100;-66
2023/06/11 11:40:20;;;;;;;5.68;4.93;;;;;;;;;;5043389;28;20013;-66
2023/06/11 11:42:55;;;;;;;6.47;5.00;;;;;;;;;;5050196;28;20052;-64
2023/06/11 11:45:23;;;;;;;5.95;5.45;;;;;;;;;;5052024;28;20397;-64
2023/06/11 11:47:51;;;;;;;6.35;5.28;;;;;;;;;;5051865;28;20112;-63
2023/06/11 11:50:22;;;;;;;5.68;5.18;;;;;;;;;;5052077;28;20029;-64
2023/06/11 11:53:04;;;;;;;7.78;5.75;;;;;;;;;;5051785;28;20500;-65
2023/06/11 11:55:36;;;;;;;10.95;5.18;;;;;;;;;;5052055;28;20067;-64
2023/06/11 11:58:09;;;;;;;5.90;5.13;;;;;;;;;;5051824;28;20031;-63
2023/06/11 12:00:40;;;;;;;7.25;5.10;;;;;;;;;;5044418;28;20040;-64
2023/06/11 12:03:08;;;;;;;7.95;4.72;;;;;;;;;;5038772;28;20469;-62
2023/06/11 12:05:35;;;;;;;8.32;4.90;;;;;;;;;;5051642;28;20111;-65
2023/06/11 12:08:01;;;;;;;6.95;4.70;;;;;;;;;;5051584;28;20107;-66
2023/06/11 12:10:27;;;;;;;5.20;4.70;;;;;;;;;;5044961;28;20124;-64
2023/06/11 12:12:53;;;;;;;7.78;4.50;;;;;;;;;;5053087;28;20436;-66
2023/06/11 12:15:18;;;;;;;5.68;4.43;;;;;;;;;;5038189;28;20060;-66
2023/06/11 12:17:45;;;;;;;9.48;4.43;;;;;;;;;;5045281;28;20056;-66
2023/06/11 12:20:11;;;;;;;8.73;4.90;;;;;;;;;;5043830;28;20064;-65
2023/06/11 12:22:38;;;;;;;10.68;4.82;;;;;;;;;;5046511;28;20477;-65
2023/06/11 12:25:04;;;;;;;5.28;4.78;;;;;;;;;;5034513;28;20053;-64
2023/06/11 12:27:30;;;;;;;11.40;4.90;;;;;;;;;;5034354;28;20053;-65
2023/06/11 12:29:57;;;;;;;7.90;4.70;;;;;;;;;;5032587;28;20063;-64
2023/06/11 12:32:24;;;;;;;6.63;4.35;;;;;;;;;;5034570;28;20033;-65
2023/06/11 12:34:51;;;;;;;6.15;4.30;;;;;;;;;;5033246;28;20048;-65
2023/06/11 12:37:16;;;;;;;9.25;4.95;;;;;;;;;;5033184;28;20108;-67
2023/06/11 12:39:46;;;;;;;5.88;4.40;;;;;;;;;;5033485;28;20128;-66
2023/06/11 12:42:13;;;;;;;8.75;4.40;;;;;;;;;;5033543;28;20095;-67
2023/06/11 12:44:41;;;;;;;9.98;5.07;;;;;;;;;;5033548;28;20040;-66
2023/06/11 12:47:07;;;;;;;7.57;4.75;;;;;;;;;;5033586;28;20053;-65
2023/06/11 12:49:32;;;;;;;5.25;4.75;;;;;;;;;;5033951;28;20421;-64
2023/06/11 12:51:58;;;;;;;7.10;5.03;;;;;;;;;;5034812;28;20067;-63
2023/06/11 12:54:25;;;;;;;5.43;4.63;;;;;;;;;;5035032;28;20095;-64
2023/06/11 12:56:51;;;;;;;5.22;4.72;;;;;;;;;;5034755;28;20029;-66
2023/06/11 12:59:17;;;;;;;5.80;4.93;;;;;;;;;;5034650;28;20032;-65
2023/06/11 13:01:44;;;;;;;5.70;4.82;;;;;;;;;;5034992;28;20033;-64
2023/06/11 13:04:09;;;;;;;5.70;4.75;;;;;;;;;;5034923;28;20100;-66
2023/06/11 13:06:35;;;;;;;5.35;4.85;;;;;;;;;;5034856;28;20500;-64
2023/06/11 13:09:02;;;;;;;5.80;5.05;;;;;;;;;;5034634;28;20048;-64
2023/06/11 13:11:28;;;;;;;6.30;5.20;;;;;;;;;;5034527;28;20033;-64
2023/06/11 13:13:54;;;;;;;5.68;4.85;;;;;;;;;;5034461;28;20029;-64
2023/06/11 13:16:19;;;;;;;5.97;4.63;;;;;;;;;;5034437;28;20113;-64
2023/06/11 13:18:48;;;;;;;5.97;5.22;;;;;;;;;;5034639;28;20119;-65
2023/06/11 13:21:15;;;;;;;6.28;5.15;;;;;;;;;;5033360;28;20032;-64
2023/06/11 13:23:42;;;;;;;6.10;4.72;;;;;;;;;;5034347;28;20477;-64
2023/06/11 13:26:09;;;;;;;6.43;4.95;;;;;;;;;;5034300;28;20029;-66
2023/06/11 13:28:35;;;;;;;6.13;4.93;;;;;;;;;;5034384;28;20053;-64
2023/06/11 13:31:02;;;;;;;5.55;5.05;;;;;;;;;;5034395;28;20543;-64
2023/06/11 13:33:30;;;;;;;5.10;4.60;;;;;;;;;;5045635;28;20041;-65
2023/06/11 13:35:56;;;;;;;5.97;4.90;;;;;;;;;;5050973;28;20021;-64
2023/06/11 13:38:22;;;;;;;5.50;4.72;;;;;;;;;;5047932;28;20041;-64
2023/06/11 13:40:48;;;;;;;5.55;5.00;;;;;;;;;;5045030;28;20017;-63
2023/06/11 13:43:13;;;;;;;7.88;5.05;;;;;;;;;;5042703;28;20025;-66
2023/06/11 13:45:46;;;;;;;5.53;4.72;;;;;;;;;;5045707;28;20052;-64
2023/06/11 13:48:12;;;;;;;8.43;4.85;;;;;;;;;;5042773;28;20018;-67
2023/06/11 13:50:40;;;;;;;4.40;4.00;;;;;;;;;;5043361;28;20025;-64
2023/06/11 13:53:05;;;;;;;4.68;4.05;;;;;;;;;;5041448;28;20036;-66
2023/06/11 13:55:31;;;;;;;4.78;4.38;;;;;;;;;;5047211;28;20103;-65
2023/06/11 13:57:56;;;;;;;5.38;4.03;;;;;;;;;;5050300;28;20061;-64
2023/06/11 14:00:23;;;;;;;4.75;4.20;;;;;;;;;;5041312;28;20026;-67
2023/06/11 14:02:48;;;;;;;5.03;4.35;;;;;;;;;;5041941;28;20078;-64
2023/06/11 14:05:14;;;;;;;4.25;3.83;;;;;;;;;;5036451;28;20022;-67
2023/06/11 14:07:40;;;;;;;5.55;4.35;;;;;;;;;;5040330;28;20472;-67
2023/06/11 14:10:07;;;;;;;4.15;3.75;;;;;;;;;;5041376;28;20045;-63
2023/06/11 14:12:32;;;;;;;4.35;3.95;;;;;;;;;;5039697;28;20033;-65
2023/06/11 14:14:58;;;;;;;6.15;4.10;;;;;;;;;;5040820;28;20025;-66
2023/06/11 14:17:23;;;;;;;4.88;4.28;;;;;;;;;;5041024;28;20029;-64
2023/06/11 14:19:49;;;;;;;5.15;4.30;;;;;;;;;;5039416;28;20052;-65
2023/06/11 14:22:16;;;;;;;4.78;4.15;;;;;;;;;;5041065;28;20432;-65
2023/06/11 14:24:42;;;;;;;7.10;3.92;;;;;;;;;;5040571;28;20029;-65
2023/06/11 14:27:08;;;;;;;5.70;4.07;;;;;;;;;;5039097;28;20079;-64
2023/06/11 14:29:34;;;;;;;10.75;4.32;;;;;;;;;;5040849;28;20131;-64
2023/06/11 14:32:00;;;;;;;4.45;4.05;;;;;;;;;;5043729;28;20033;-65
2023/06/11 14:34:26;;;;;;;4.28;3.95;;;;;;;;;;5051328;28;20031;-65
2023/06/11 14:36:52;;;;;;;8.70;4.28;;;;;;;;;;5032961;28;20025;-64
2023/06/11 14:39:18;;;;;;;4.65;3.75;;;;;;;;;;5031200;28;20025;-64
2023/06/11 14:41:44;;;;;;;7.10;4.35;;;;;;;;;;5049612;28;20057;-64